Details for Flybe at EGCC




Go Back


Latest METAR
Local Time

EGCC 220850Z AUTO 21005KT 9999 NCD 10/07 Q1017 NOSIG
22/09/2018, 10:00:12

Description
Results
Flybe Logo
Number of Pilots based at EGCC
1 Pilots Based here
Number of Flybe Flights Departed from EGCC
21 Flights Departed
Number of Flybe Flights Arrived at EGCC
25 Flights Arrived
Number of Flybe Schedules Departing from EGCC
80 Schedules
Number of Flybe Schedules Arriving at EGCC
80 Schedules
Number of Flybe Schedules Departing from EGCC availible today
32 Schedules Today
Number of Flybe Schedules Arriving at EGCC availible today
32 Schedules Today
Average Landing Rate at EGCC
-201 fpm
Flybe Average Landing Rate at EGCC
-205 fpm
Total Fuel Purchased at EGCC by Flybe
19,374.30 kgs / 42,712.58 lbs

Pilots Based at EGCC


Pilot ID
Pilot Name
Pilot Rank
No. of Flights
No. of Flying Hours
Andrew Sutcliffe
444
1677.31
Content